キエフ/ボリースピリ の空港の天気 - METARとTAF

ボリースピリ国際空港(キエフ) ( UKBB / KBP ) - ウクライナ ボリスピリ (キエフ近郊)
飛行場実況気象(Metar)
観測時間01/20 04:30 EET (01/20 02:30 UTC)
風向・風速南 2m/s
視程1000m
天気現象氷霧
少しの雲 雲底高度 30m
気温-15℃
湿度92%
気圧1023hPa
METARUKBB 200230Z 19002MPS 170V230 1000 0600W R18L/P2000N R18R/1800U FZFG FEW001 M15/M16 Q1023 R18L/811045 R18R/811095 NOSIG
過去の天気等 Google飛行場航空写真 Wunderground天気予報

過去48時間のMETAR

飛行場予報(TAF)
発表時間: 1/20 01:01 EET (1/19 23:01 UTC)
予報対象時間: 20日2時 EET ~ 21日2時 EET
風向・風速南西 3m/s
視程300m
天気現象氷霧
全天を覆う雲 鉛直視程 30m
20日2時 EET ~ 20日9時 EET に一時的に
視程2000m
天気現象もや
全天の4割程度の雲 雲底高度 210m
20日9時 EET ~ 20日11時 EET に徐々に
風向・風速南南西 3m/s 瞬間風速 8m/s
視程6000m
天気現象運行に影響にある天気現象が終了
全天の8割程度の雲 雲底高度 210m
20日11時 EET ~ 21日2時 EET に一時的に
視程1600m
天気現象弱い雪 もや
全天を覆う雲 雲底高度 180m
TAF UKBB 192301Z 2000/2024 23003MPS 0300 FZFG VV001
TEMPO 2000/2007 2000 BR SCT007
BECMG 2007/2009 20003G08MPS 6000 NSW BKN007
TEMPO 2009/2024 1600 -SN BR OVC006